sensor_id;sensor_type;location;lat;lon;timestamp;P1;durP1;ratioP1;P2;durP2;ratioP2
73023;SDS011;61199;47.526;8.538;2022-10-26T00:01:17;11.43;;;6.53;;
73023;SDS011;61199;47.526;8.538;2022-10-26T00:03:44;11.33;;;6.27;;
73023;SDS011;61199;47.526;8.538;2022-10-26T00:06:12;10.23;;;7.07;;
73023;SDS011;61199;47.526;8.538;2022-10-26T00:08:39;15.50;;;7.77;;
73023;SDS011;61199;47.526;8.538;2022-10-26T00:11:07;17.00;;;7.17;;
73023;SDS011;61199;47.526;8.538;2022-10-26T00:13:33;16.40;;;7.77;;
73023;SDS011;61199;47.526;8.538;2022-10-26T00:16:01;15.63;;;7.50;;
73023;SDS011;61199;47.526;8.538;2022-10-26T00:18:33;17.10;;;8.00;;
73023;SDS011;61199;47.526;8.538;2022-10-26T00:21:03;22.97;;;7.93;;
73023;SDS011;61199;47.526;8.538;2022-10-26T00:23:31;28.67;;;7.90;;
73023;SDS011;61199;47.526;8.538;2022-10-26T00:25:58;20.47;;;7.17;;
73023;SDS011;61199;47.526;8.538;2022-10-26T00:28:24;14.60;;;6.23;;
73023;SDS011;61199;47.526;8.538;2022-10-26T00:30:51;14.87;;;8.13;;
73023;SDS011;61199;47.526;8.538;2022-10-26T00:33:18;19.60;;;8.37;;
73023;SDS011;61199;47.526;8.538;2022-10-26T00:35:51;16.53;;;8.83;;
73023;SDS011;61199;47.526;8.538;2022-10-26T00:38:18;20.40;;;7.77;;
73023;SDS011;61199;47.526;8.538;2022-10-26T00:40:45;11.43;;;7.20;;
73023;SDS011;61199;47.526;8.538;2022-10-26T00:43:13;13.87;;;6.90;;
73023;SDS011;61199;47.526;8.538;2022-10-26T00:45:41;11.97;;;7.17;;
73023;SDS011;61199;47.526;8.538;2022-10-26T00:48:11;15.50;;;7.37;;
73023;SDS011;61199;47.526;8.538;2022-10-26T00:50:48;13.23;;;7.03;;
73023;SDS011;61199;47.526;8.538;2022-10-26T00:53:15;21.70;;;7.60;;
73023;SDS011;61199;47.526;8.538;2022-10-26T00:55:45;16.73;;;6.70;;
73023;SDS011;61199;47.526;8.538;2022-10-26T00:58:13;18.40;;;7.60;;
73023;SDS011;61199;47.526;8.538;2022-10-26T01:00:41;13.20;;;7.60;;
73023;SDS011;61199;47.526;8.538;2022-10-26T01:03:09;12.63;;;7.57;;
73023;SDS011;61199;47.526;8.538;2022-10-26T01:05:36;17.20;;;7.80;;
73023;SDS011;61199;47.526;8.538;2022-10-26T01:08:06;13.40;;;7.57;;
73023;SDS011;61199;47.526;8.538;2022-10-26T01:10:34;14.67;;;7.90;;
73023;SDS011;61199;47.526;8.538;2022-10-26T01:13:02;11.30;;;7.23;;
73023;SDS011;61199;47.526;8.538;2022-10-26T01:15:31;14.03;;;7.03;;
73023;SDS011;61199;47.526;8.538;2022-10-26T01:18:11;19.83;;;7.90;;
73023;SDS011;61199;47.526;8.538;2022-10-26T01:21:06;14.50;;;7.23;;
73023;SDS011;61199;47.526;8.538;2022-10-26T01:29:21;14.80;;;6.90;;
73023;SDS011;61199;47.526;8.538;2022-10-26T01:32:11;17.50;;;7.63;;
73023;SDS011;61199;47.526;8.538;2022-10-26T01:34:44;22.73;;;9.43;;
73023;SDS011;61199;47.526;8.538;2022-10-26T01:37:34;20.73;;;7.20;;
73023;SDS011;61199;47.526;8.538;2022-10-26T01:40:18;21.80;;;8.80;;
73023;SDS011;61199;47.526;8.538;2022-10-26T01:42:50;14.50;;;7.97;;
73023;SDS011;61199;47.526;8.538;2022-10-26T01:45:20;18.53;;;8.43;;
73023;SDS011;61199;47.526;8.538;2022-10-26T01:47:47;20.30;;;8.40;;
73023;SDS011;61199;47.526;8.538;2022-10-26T01:50:15;17.80;;;9.33;;
73023;SDS011;61199;47.526;8.538;2022-10-26T01:52:43;18.63;;;9.07;;
73023;SDS011;61199;47.526;8.538;2022-10-26T01:57:59;24.57;;;11.97;;
73023;SDS011;61199;47.526;8.538;2022-10-26T02:00:50;19.30;;;12.73;;
73023;SDS011;61199;47.526;8.538;2022-10-26T02:03:32;22.17;;;12.90;;
73023;SDS011;61199;47.526;8.538;2022-10-26T02:06:13;17.30;;;12.00;;
73023;SDS011;61199;47.526;8.538;2022-10-26T02:11:26;17.60;;;11.20;;
73023;SDS011;61199;47.526;8.538;2022-10-26T02:14:03;19.97;;;10.33;;
73023;SDS011;61199;47.526;8.538;2022-10-26T02:19:18;17.40;;;10.43;;
73023;SDS011;61199;47.526;8.538;2022-10-26T02:24:45;19.30;;;10.63;;
73023;SDS011;61199;47.526;8.538;2022-10-26T02:27:15;17.23;;;10.53;;
73023;SDS011;61199;47.526;8.538;2022-10-26T02:29:49;18.00;;;9.30;;
73023;SDS011;61199;47.526;8.538;2022-10-26T02:32:18;25.67;;;11.37;;
73023;SDS011;61199;47.526;8.538;2022-10-26T02:34:47;14.80;;;10.43;;
73023;SDS011;61199;47.526;8.538;2022-10-26T02:37:17;18.97;;;10.17;;
73023;SDS011;61199;47.526;8.538;2022-10-26T02:39:47;19.80;;;10.80;;
73023;SDS011;61199;47.526;8.538;2022-10-26T02:42:16;17.13;;;10.90;;
73023;SDS011;61199;47.526;8.538;2022-10-26T02:44:48;20.70;;;10.40;;
73023;SDS011;61199;47.526;8.538;2022-10-26T02:47:18;16.17;;;9.67;;
73023;SDS011;61199;47.526;8.538;2022-10-26T02:49:45;21.10;;;11.43;;
73023;SDS011;61199;47.526;8.538;2022-10-26T02:57:33;28.13;;;13.00;;
73023;SDS011;61199;47.526;8.538;2022-10-26T03:00:05;26.17;;;13.37;;
73023;SDS011;61199;47.526;8.538;2022-10-26T03:02:36;21.63;;;12.63;;
73023;SDS011;61199;47.526;8.538;2022-10-26T03:05:06;24.90;;;13.97;;
73023;SDS011;61199;47.526;8.538;2022-10-26T03:07:37;20.97;;;11.90;;
73023;SDS011;61199;47.526;8.538;2022-10-26T03:10:04;19.00;;;12.67;;
73023;SDS011;61199;47.526;8.538;2022-10-26T03:12:30;20.27;;;12.20;;
73023;SDS011;61199;47.526;8.538;2022-10-26T03:14:56;26.43;;;13.47;;
73023;SDS011;61199;47.526;8.538;2022-10-26T03:17:23;18.90;;;12.70;;
73023;SDS011;61199;47.526;8.538;2022-10-26T03:19:49;21.53;;;12.97;;
73023;SDS011;61199;47.526;8.538;2022-10-26T03:22:15;26.40;;;14.10;;
73023;SDS011;61199;47.526;8.538;2022-10-26T03:24:42;24.40;;;13.90;;
73023;SDS011;61199;47.526;8.538;2022-10-26T03:27:08;25.10;;;13.53;;
73023;SDS011;61199;47.526;8.538;2022-10-26T03:29:35;20.50;;;12.20;;
73023;SDS011;61199;47.526;8.538;2022-10-26T03:32:01;35.13;;;13.60;;
73023;SDS011;61199;47.526;8.538;2022-10-26T03:34:27;22.90;;;13.73;;
73023;SDS011;61199;47.526;8.538;2022-10-26T03:36:54;21.30;;;13.67;;
73023;SDS011;61199;47.526;8.538;2022-10-26T03:39:20;22.87;;;13.40;;
73023;SDS011;61199;47.526;8.538;2022-10-26T03:41:46;20.27;;;14.20;;
73023;SDS011;61199;47.526;8.538;2022-10-26T03:44:13;25.70;;;13.57;;
73023;SDS011;61199;47.526;8.538;2022-10-26T03:46:39;22.03;;;14.00;;
73023;SDS011;61199;47.526;8.538;2022-10-26T03:49:06;25.73;;;15.00;;
73023;SDS011;61199;47.526;8.538;2022-10-26T03:51:32;20.07;;;12.70;;
73023;SDS011;61199;47.526;8.538;2022-10-26T03:53:58;27.07;;;17.93;;
73023;SDS011;61199;47.526;8.538;2022-10-26T03:56:25;26.40;;;14.63;;
73023;SDS011;61199;47.526;8.538;2022-10-26T03:58:52;21.57;;;12.20;;
73023;SDS011;61199;47.526;8.538;2022-10-26T04:01:18;22.13;;;14.13;;
73023;SDS011;61199;47.526;8.538;2022-10-26T04:03:45;26.30;;;14.83;;
73023;SDS011;61199;47.526;8.538;2022-10-26T04:06:11;21.00;;;13.37;;
73023;SDS011;61199;47.526;8.538;2022-10-26T04:08:38;22.70;;;12.90;;
73023;SDS011;61199;47.526;8.538;2022-10-26T04:11:04;48.37;;;13.83;;
73023;SDS011;61199;47.526;8.538;2022-10-26T04:13:31;27.97;;;14.40;;
73023;SDS011;61199;47.526;8.538;2022-10-26T04:15:58;20.60;;;14.17;;
73023;SDS011;61199;47.526;8.538;2022-10-26T04:18:24;28.73;;;14.10;;
73023;SDS011;61199;47.526;8.538;2022-10-26T04:20:50;22.33;;;14.30;;
73023;SDS011;61199;47.526;8.538;2022-10-26T04:23:17;20.90;;;13.53;;
73023;SDS011;61199;47.526;8.538;2022-10-26T04:25:44;25.30;;;13.90;;
73023;SDS011;61199;47.526;8.538;2022-10-26T04:28:12;22.17;;;13.73;;
73023;SDS011;61199;47.526;8.538;2022-10-26T04:30:39;25.97;;;14.53;;
73023;SDS011;61199;47.526;8.538;2022-10-26T04:33:06;24.97;;;14.23;;
73023;SDS011;61199;47.526;8.538;2022-10-26T04:35:32;21.07;;;13.53;;
73023;SDS011;61199;47.526;8.538;2022-10-26T04:37:59;26.47;;;14.00;;
73023;SDS011;61199;47.526;8.538;2022-10-26T04:40:27;22.47;;;13.50;;
73023;SDS011;61199;47.526;8.538;2022-10-26T04:42:54;21.53;;;13.80;;
73023;SDS011;61199;47.526;8.538;2022-10-26T04:45:20;25.00;;;13.10;;
73023;SDS011;61199;47.526;8.538;2022-10-26T04:47:47;29.37;;;12.10;;
73023;SDS011;61199;47.526;8.538;2022-10-26T04:50:13;20.13;;;10.93;;
73023;SDS011;61199;47.526;8.538;2022-10-26T04:52:40;17.77;;;9.70;;
73023;SDS011;61199;47.526;8.538;2022-10-26T04:55:06;19.50;;;10.60;;
73023;SDS011;61199;47.526;8.538;2022-10-26T04:57:33;12.80;;;9.70;;
73023;SDS011;61199;47.526;8.538;2022-10-26T05:00:00;20.50;;;11.40;;
73023;SDS011;61199;47.526;8.538;2022-10-26T05:02:28;22.87;;;11.07;;
73023;SDS011;61199;47.526;8.538;2022-10-26T05:04:55;21.97;;;11.97;;
73023;SDS011;61199;47.526;8.538;2022-10-26T05:07:21;21.77;;;11.60;;
73023;SDS011;61199;47.526;8.538;2022-10-26T05:09:47;19.73;;;11.23;;
73023;SDS011;61199;47.526;8.538;2022-10-26T05:12:14;22.10;;;12.40;;
73023;SDS011;61199;47.526;8.538;2022-10-26T05:14:40;22.73;;;11.90;;
73023;SDS011;61199;47.526;8.538;2022-10-26T05:17:06;18.23;;;10.73;;
73023;SDS011;61199;47.526;8.538;2022-10-26T05:19:33;18.10;;;10.30;;
73023;SDS011;61199;47.526;8.538;2022-10-26T05:21:59;18.10;;;10.73;;
73023;SDS011;61199;47.526;8.538;2022-10-26T05:24:26;20.03;;;9.87;;
73023;SDS011;61199;47.526;8.538;2022-10-26T05:26:52;14.30;;;9.10;;
73023;SDS011;61199;47.526;8.538;2022-10-26T05:29:18;36.37;;;11.23;;
73023;SDS011;61199;47.526;8.538;2022-10-26T05:31:45;26.77;;;10.87;;
73023;SDS011;61199;47.526;8.538;2022-10-26T05:34:11;19.30;;;10.97;;
73023;SDS011;61199;47.526;8.538;2022-10-26T05:36:38;18.20;;;10.30;;
73023;SDS011;61199;47.526;8.538;2022-10-26T05:39:04;19.33;;;10.50;;
73023;SDS011;61199;47.526;8.538;2022-10-26T05:41:30;16.23;;;9.67;;
73023;SDS011;61199;47.526;8.538;2022-10-26T05:43:57;15.67;;;10.53;;
73023;SDS011;61199;47.526;8.538;2022-10-26T05:46:23;19.77;;;11.90;;
73023;SDS011;61199;47.526;8.538;2022-10-26T05:48:49;17.00;;;9.40;;
73023;SDS011;61199;47.526;8.538;2022-10-26T05:51:16;23.27;;;10.83;;
73023;SDS011;61199;47.526;8.538;2022-10-26T05:53:42;16.93;;;9.33;;
73023;SDS011;61199;47.526;8.538;2022-10-26T05:56:18;18.33;;;9.77;;
73023;SDS011;61199;47.526;8.538;2022-10-26T05:58:49;18.03;;;9.97;;
73023;SDS011;61199;47.526;8.538;2022-10-26T06:01:25;16.97;;;9.90;;
73023;SDS011;61199;47.526;8.538;2022-10-26T06:04:27;18.17;;;9.33;;
73023;SDS011;61199;47.526;8.538;2022-10-26T06:06:57;22.30;;;10.00;;
73023;SDS011;61199;47.526;8.538;2022-10-26T06:09:24;15.50;;;10.10;;
73023;SDS011;61199;47.526;8.538;2022-10-26T06:11:51;22.90;;;10.87;;
73023;SDS011;61199;47.526;8.538;2022-10-26T06:14:18;32.90;;;12.70;;
73023;SDS011;61199;47.526;8.538;2022-10-26T06:16:55;20.20;;;10.93;;
73023;SDS011;61199;47.526;8.538;2022-10-26T06:22:07;33.47;;;11.37;;
73023;SDS011;61199;47.526;8.538;2022-10-26T06:30:42;21.23;;;10.37;;
73023;SDS011;61199;47.526;8.538;2022-10-26T06:33:09;21.57;;;11.43;;
73023;SDS011;61199;47.526;8.538;2022-10-26T06:38:45;19.47;;;10.93;;
73023;SDS011;61199;47.526;8.538;2022-10-26T06:41:14;26.33;;;11.47;;
73023;SDS011;61199;47.526;8.538;2022-10-26T06:43:43;26.90;;;11.30;;
73023;SDS011;61199;47.526;8.538;2022-10-26T06:51:55;15.77;;;9.77;;
73023;SDS011;61199;47.526;8.538;2022-10-26T06:54:30;21.93;;;10.67;;
73023;SDS011;61199;47.526;8.538;2022-10-26T06:57:10;22.80;;;9.40;;
73023;SDS011;61199;47.526;8.538;2022-10-26T06:59:42;15.03;;;8.70;;
73023;SDS011;61199;47.526;8.538;2022-10-26T07:02:16;16.60;;;8.97;;
73023;SDS011;61199;47.526;8.538;2022-10-26T07:04:43;15.50;;;9.17;;
73023;SDS011;61199;47.526;8.538;2022-10-26T07:07:17;14.93;;;8.50;;
73023;SDS011;61199;47.526;8.538;2022-10-26T07:09:45;17.50;;;8.43;;
73023;SDS011;61199;47.526;8.538;2022-10-26T07:12:11;16.90;;;8.90;;
73023;SDS011;61199;47.526;8.538;2022-10-26T07:14:38;22.60;;;8.70;;
73023;SDS011;61199;47.526;8.538;2022-10-26T07:17:04;17.90;;;8.97;;
73023;SDS011;61199;47.526;8.538;2022-10-26T07:19:31;17.90;;;8.73;;
73023;SDS011;61199;47.526;8.538;2022-10-26T07:21:57;18.50;;;8.73;;
73023;SDS011;61199;47.526;8.538;2022-10-26T07:24:27;20.90;;;9.50;;
73023;SDS011;61199;47.526;8.538;2022-10-26T07:26:54;14.40;;;8.90;;
73023;SDS011;61199;47.526;8.538;2022-10-26T07:29:21;16.70;;;8.40;;
73023;SDS011;61199;47.526;8.538;2022-10-26T07:31:49;16.63;;;8.97;;
73023;SDS011;61199;47.526;8.538;2022-10-26T07:34:15;21.60;;;10.00;;
73023;SDS011;61199;47.526;8.538;2022-10-26T07:36:42;16.13;;;9.23;;
73023;SDS011;61199;47.526;8.538;2022-10-26T07:39:09;22.43;;;12.07;;
73023;SDS011;61199;47.526;8.538;2022-10-26T07:41:35;15.00;;;10.73;;
73023;SDS011;61199;47.526;8.538;2022-10-26T07:44:02;25.13;;;12.90;;
73023;SDS011;61199;47.526;8.538;2022-10-26T07:46:28;20.23;;;11.50;;
73023;SDS011;61199;47.526;8.538;2022-10-26T07:48:55;19.20;;;10.80;;
73023;SDS011;61199;47.526;8.538;2022-10-26T07:51:21;17.53;;;9.90;;
73023;SDS011;61199;47.526;8.538;2022-10-26T07:53:48;19.50;;;10.33;;
73023;SDS011;61199;47.526;8.538;2022-10-26T07:56:14;21.80;;;11.03;;
73023;SDS011;61199;47.526;8.538;2022-10-26T07:58:41;20.20;;;11.40;;
73023;SDS011;61199;47.526;8.538;2022-10-26T08:01:08;18.43;;;10.73;;
73023;SDS011;61199;47.526;8.538;2022-10-26T08:03:37;25.10;;;10.30;;
73023;SDS011;61199;47.526;8.538;2022-10-26T08:06:03;20.83;;;10.63;;
73023;SDS011;61199;47.526;8.538;2022-10-26T08:08:30;20.80;;;10.27;;
73023;SDS011;61199;47.526;8.538;2022-10-26T08:10:57;34.30;;;11.03;;
73023;SDS011;61199;47.526;8.538;2022-10-26T08:13:25;20.57;;;10.97;;
73023;SDS011;61199;47.526;8.538;2022-10-26T08:15:58;26.60;;;10.53;;
73023;SDS011;61199;47.526;8.538;2022-10-26T08:18:25;24.43;;;11.00;;
73023;SDS011;61199;47.526;8.538;2022-10-26T08:20:52;27.40;;;9.90;;
73023;SDS011;61199;47.526;8.538;2022-10-26T08:23:30;17.00;;;9.60;;
73023;SDS011;61199;47.526;8.538;2022-10-26T08:26:01;14.77;;;8.20;;
73023;SDS011;61199;47.526;8.538;2022-10-26T08:28:28;19.13;;;8.27;;
73023;SDS011;61199;47.526;8.538;2022-10-26T08:30:55;20.20;;;9.57;;
73023;SDS011;61199;47.526;8.538;2022-10-26T08:33:22;17.77;;;9.40;;
73023;SDS011;61199;47.526;8.538;2022-10-26T08:35:59;17.20;;;9.30;;
73023;SDS011;61199;47.526;8.538;2022-10-26T08:38:28;21.73;;;9.90;;
73023;SDS011;61199;47.526;8.538;2022-10-26T08:40:56;23.80;;;11.27;;
73023;SDS011;61199;47.526;8.538;2022-10-26T08:43:30;17.00;;;10.50;;
73023;SDS011;61199;47.526;8.538;2022-10-26T08:46:01;18.87;;;8.23;;
73023;SDS011;61199;47.526;8.538;2022-10-26T08:48:35;16.10;;;7.40;;
73023;SDS011;61199;47.526;8.538;2022-10-26T08:51:13;19.30;;;8.87;;
73023;SDS011;61199;47.526;8.538;2022-10-26T08:56:43;15.30;;;8.47;;
73023;SDS011;61199;47.526;8.538;2022-10-26T09:02:24;15.03;;;7.77;;
73023;SDS011;61199;47.526;8.538;2022-10-26T09:04:51;17.90;;;7.90;;
73023;SDS011;61199;47.526;8.538;2022-10-26T09:21:34;19.63;;;9.73;;
73023;SDS011;61199;47.526;8.538;2022-10-26T09:26:54;22.50;;;10.13;;
73023;SDS011;61199;47.526;8.538;2022-10-26T09:29:26;17.20;;;9.73;;
73023;SDS011;61199;47.526;8.538;2022-10-26T09:31:58;23.57;;;7.50;;
73023;SDS011;61199;47.526;8.538;2022-10-26T09:36:56;15.33;;;6.60;;
73023;SDS011;61199;47.526;8.538;2022-10-26T09:42:02;17.93;;;5.93;;
73023;SDS011;61199;47.526;8.538;2022-10-26T09:44:55;13.00;;;4.93;;
73023;SDS011;61199;47.526;8.538;2022-10-26T09:50:03;13.23;;;4.50;;
73023;SDS011;61199;47.526;8.538;2022-10-26T09:52:35;7.50;;;4.40;;
73023;SDS011;61199;47.526;8.538;2022-10-26T09:55:01;21.17;;;4.60;;
73023;SDS011;61199;47.526;8.538;2022-10-26T09:57:27;13.90;;;5.00;;
73023;SDS011;61199;47.526;8.538;2022-10-26T09:59:54;15.47;;;4.40;;
73023;SDS011;61199;47.526;8.538;2022-10-26T10:02:31;10.23;;;3.87;;
73023;SDS011;61199;47.526;8.538;2022-10-26T10:04:57;14.17;;;5.03;;
73023;SDS011;61199;47.526;8.538;2022-10-26T10:07:24;15.33;;;3.87;;
73023;SDS011;61199;47.526;8.538;2022-10-26T10:10:37;7.80;;;4.00;;
73023;SDS011;61199;47.526;8.538;2022-10-26T10:12:45;11.23;;;4.10;;
73023;SDS011;61199;47.526;8.538;2022-10-26T10:15:16;8.40;;;4.00;;
73023;SDS011;61199;47.526;8.538;2022-10-26T10:17:51;14.83;;;4.67;;
73023;SDS011;61199;47.526;8.538;2022-10-26T10:20:28;12.67;;;4.00;;
73023;SDS011;61199;47.526;8.538;2022-10-26T10:22:58;9.30;;;3.47;;
73023;SDS011;61199;47.526;8.538;2022-10-26T10:25:30;11.00;;;4.20;;
73023;SDS011;61199;47.526;8.538;2022-10-26T10:27:59;9.30;;;4.50;;
73023;SDS011;61199;47.526;8.538;2022-10-26T10:30:27;18.23;;;4.83;;
73023;SDS011;61199;47.526;8.538;2022-10-26T10:33:02;12.07;;;4.67;;
73023;SDS011;61199;47.526;8.538;2022-10-26T10:35:33;12.20;;;4.87;;
73023;SDS011;61199;47.526;8.538;2022-10-26T10:38:00;18.07;;;5.00;;
73023;SDS011;61199;47.526;8.538;2022-10-26T10:40:27;20.33;;;4.20;;
73023;SDS011;61199;47.526;8.538;2022-10-26T10:43:06;14.73;;;4.90;;
73023;SDS011;61199;47.526;8.538;2022-10-26T10:45:37;10.70;;;4.60;;
73023;SDS011;61199;47.526;8.538;2022-10-26T10:50:56;15.30;;;4.40;;
73023;SDS011;61199;47.526;8.538;2022-10-26T10:53:37;11.73;;;4.30;;
73023;SDS011;61199;47.526;8.538;2022-10-26T10:56:12;14.97;;;4.50;;
73023;SDS011;61199;47.526;8.538;2022-10-26T10:59:36;16.23;;;4.30;;
73023;SDS011;61199;47.526;8.538;2022-10-26T11:01:38;16.40;;;4.87;;
73023;SDS011;61199;47.526;8.538;2022-10-26T11:06:50;15.03;;;4.50;;
73023;SDS011;61199;47.526;8.538;2022-10-26T11:09:24;15.13;;;4.80;;
73023;SDS011;61199;47.526;8.538;2022-10-26T11:11:54;24.73;;;4.50;;
73023;SDS011;61199;47.526;8.538;2022-10-26T11:14:34;16.90;;;5.20;;
73023;SDS011;61199;47.526;8.538;2022-10-26T11:17:05;10.90;;;4.43;;
73023;SDS011;61199;47.526;8.538;2022-10-26T11:19:59;11.00;;;4.90;;
73023;SDS011;61199;47.526;8.538;2022-10-26T11:22:33;14.30;;;4.43;;
73023;SDS011;61199;47.526;8.538;2022-10-26T11:27:55;12.30;;;4.60;;
73023;SDS011;61199;47.526;8.538;2022-10-26T11:30:25;22.60;;;4.80;;
73023;SDS011;61199;47.526;8.538;2022-10-26T11:33:09;17.90;;;5.00;;
73023;SDS011;61199;47.526;8.538;2022-10-26T11:35:52;12.37;;;4.00;;
73023;SDS011;61199;47.526;8.538;2022-10-26T11:41:24;15.70;;;4.33;;
73023;SDS011;61199;47.526;8.538;2022-10-26T11:46:45;23.80;;;4.27;;
73023;SDS011;61199;47.526;8.538;2022-10-26T11:49:17;10.13;;;3.93;;
73023;SDS011;61199;47.526;8.538;2022-10-26T11:54:20;14.73;;;4.50;;
73023;SDS011;61199;47.526;8.538;2022-10-26T11:56:53;16.37;;;4.63;;
73023;SDS011;61199;47.526;8.538;2022-10-26T11:59:23;18.90;;;4.43;;
73023;SDS011;61199;47.526;8.538;2022-10-26T12:02:03;22.30;;;4.67;;
73023;SDS011;61199;47.526;8.538;2022-10-26T12:04:36;17.23;;;5.80;;
73023;SDS011;61199;47.526;8.538;2022-10-26T12:07:49;14.87;;;4.60;;
73023;SDS011;61199;47.526;8.538;2022-10-26T12:09:56;19.60;;;4.60;;
73023;SDS011;61199;47.526;8.538;2022-10-26T12:12:32;20.03;;;5.77;;
73023;SDS011;61199;47.526;8.538;2022-10-26T12:15:24;14.80;;;4.33;;
73023;SDS011;61199;47.526;8.538;2022-10-26T12:18:18;18.10;;;4.80;;
73023;SDS011;61199;47.526;8.538;2022-10-26T12:21:08;18.90;;;4.63;;
73023;SDS011;61199;47.526;8.538;2022-10-26T12:23:37;21.07;;;4.80;;
73023;SDS011;61199;47.526;8.538;2022-10-26T12:33:58;14.33;;;4.00;;
73023;SDS011;61199;47.526;8.538;2022-10-26T12:41:58;14.20;;;4.60;;
73023;SDS011;61199;47.526;8.538;2022-10-26T12:49:57;17.50;;;4.70;;
73023;SDS011;61199;47.526;8.538;2022-10-26T12:52:47;20.33;;;4.90;;
73023;SDS011;61199;47.526;8.538;2022-10-26T12:55:29;17.40;;;4.73;;
73023;SDS011;61199;47.526;8.538;2022-10-26T13:09:20;21.00;;;4.50;;
73023;SDS011;61199;47.526;8.538;2022-10-26T13:11:51;20.73;;;5.13;;
73023;SDS011;61199;47.526;8.538;2022-10-26T13:14:24;18.43;;;5.03;;
73023;SDS011;61199;47.526;8.538;2022-10-26T13:16:56;20.33;;;4.40;;
73023;SDS011;61199;47.526;8.538;2022-10-26T13:22:14;12.00;;;4.83;;
73023;SDS011;61199;47.526;8.538;2022-10-26T13:24:50;14.90;;;4.43;;
73023;SDS011;61199;47.526;8.538;2022-10-26T13:27:23;27.13;;;6.03;;
73023;SDS011;61199;47.526;8.538;2022-10-26T13:30:11;15.57;;;5.10;;
73023;SDS011;61199;47.526;8.538;2022-10-26T13:32:54;16.80;;;4.70;;
73023;SDS011;61199;47.526;8.538;2022-10-26T13:35:22;19.53;;;4.80;;
73023;SDS011;61199;47.526;8.538;2022-10-26T13:37:50;21.13;;;4.93;;
73023;SDS011;61199;47.526;8.538;2022-10-26T13:40:21;17.30;;;4.53;;
73023;SDS011;61199;47.526;8.538;2022-10-26T13:42:52;20.70;;;4.80;;
73023;SDS011;61199;47.526;8.538;2022-10-26T13:45:28;18.60;;;4.67;;
73023;SDS011;61199;47.526;8.538;2022-10-26T13:50:30;13.50;;;4.60;;
73023;SDS011;61199;47.526;8.538;2022-10-26T13:53:05;15.23;;;4.73;;
73023;SDS011;61199;47.526;8.538;2022-10-26T13:55:38;20.23;;;5.20;;
73023;SDS011;61199;47.526;8.538;2022-10-26T14:03:26;15.40;;;5.00;;
73023;SDS011;61199;47.526;8.538;2022-10-26T14:05:53;24.03;;;4.20;;
73023;SDS011;61199;47.526;8.538;2022-10-26T14:08:20;19.10;;;4.60;;
73023;SDS011;61199;47.526;8.538;2022-10-26T14:10:51;18.73;;;4.70;;
73023;SDS011;61199;47.526;8.538;2022-10-26T14:13:20;19.17;;;4.77;;
73023;SDS011;61199;47.526;8.538;2022-10-26T14:15:51;15.10;;;4.20;;
73023;SDS011;61199;47.526;8.538;2022-10-26T14:18:26;15.70;;;5.00;;
73023;SDS011;61199;47.526;8.538;2022-10-26T14:21:04;14.80;;;4.10;;
73023;SDS011;61199;47.526;8.538;2022-10-26T14:23:34;19.63;;;4.80;;
73023;SDS011;61199;47.526;8.538;2022-10-26T14:26:02;15.60;;;4.23;;
73023;SDS011;61199;47.526;8.538;2022-10-26T14:28:30;11.90;;;4.40;;
73023;SDS011;61199;47.526;8.538;2022-10-26T14:31:19;22.17;;;6.13;;
73023;SDS011;61199;47.526;8.538;2022-10-26T14:33:48;17.37;;;4.63;;
73023;SDS011;61199;47.526;8.538;2022-10-26T14:36:16;24.07;;;4.27;;
73023;SDS011;61199;47.526;8.538;2022-10-26T14:38:45;18.40;;;4.77;;
73023;SDS011;61199;47.526;8.538;2022-10-26T14:41:15;14.43;;;4.47;;
73023;SDS011;61199;47.526;8.538;2022-10-26T14:43:43;12.80;;;4.60;;
73023;SDS011;61199;47.526;8.538;2022-10-26T14:46:17;17.90;;;5.10;;
73023;SDS011;61199;47.526;8.538;2022-10-26T14:48:52;15.67;;;4.97;;
73023;SDS011;61199;47.526;8.538;2022-10-26T14:51:28;22.27;;;4.63;;
73023;SDS011;61199;47.526;8.538;2022-10-26T14:53:56;14.20;;;4.33;;
73023;SDS011;61199;47.526;8.538;2022-10-26T14:58:51;19.10;;;5.20;;
73023;SDS011;61199;47.526;8.538;2022-10-26T15:03:51;21.50;;;5.37;;
73023;SDS011;61199;47.526;8.538;2022-10-26T15:06:27;22.33;;;7.70;;
73023;SDS011;61199;47.526;8.538;2022-10-26T15:08:56;24.07;;;5.50;;
73023;SDS011;61199;47.526;8.538;2022-10-26T15:11:25;20.43;;;6.77;;
73023;SDS011;61199;47.526;8.538;2022-10-26T15:13:53;29.83;;;7.40;;
73023;SDS011;61199;47.526;8.538;2022-10-26T15:16:22;23.83;;;6.37;;
73023;SDS011;61199;47.526;8.538;2022-10-26T15:18:52;16.40;;;5.03;;
73023;SDS011;61199;47.526;8.538;2022-10-26T15:24:11;16.30;;;5.43;;
73023;SDS011;61199;47.526;8.538;2022-10-26T15:26:45;11.63;;;4.17;;
73023;SDS011;61199;47.526;8.538;2022-10-26T15:32:27;11.63;;;4.30;;
73023;SDS011;61199;47.526;8.538;2022-10-26T15:37:49;13.00;;;4.03;;
73023;SDS011;61199;47.526;8.538;2022-10-26T15:40:16;19.00;;;4.90;;
73023;SDS011;61199;47.526;8.538;2022-10-26T15:42:44;21.67;;;4.93;;
73023;SDS011;61199;47.526;8.538;2022-10-26T15:45:16;12.33;;;3.93;;
73023;SDS011;61199;47.526;8.538;2022-10-26T15:47:45;14.53;;;4.97;;
73023;SDS011;61199;47.526;8.538;2022-10-26T15:50:16;11.27;;;4.80;;
73023;SDS011;61199;47.526;8.538;2022-10-26T15:52:47;20.63;;;5.57;;
73023;SDS011;61199;47.526;8.538;2022-10-26T15:55:15;24.50;;;4.97;;
73023;SDS011;61199;47.526;8.538;2022-10-26T15:57:42;16.13;;;5.00;;
73023;SDS011;61199;47.526;8.538;2022-10-26T16:00:13;26.83;;;4.90;;
73023;SDS011;61199;47.526;8.538;2022-10-26T16:02:42;19.50;;;5.27;;
73023;SDS011;61199;47.526;8.538;2022-10-26T16:05:10;20.87;;;5.27;;
73023;SDS011;61199;47.526;8.538;2022-10-26T16:07:38;19.60;;;6.77;;
73023;SDS011;61199;47.526;8.538;2022-10-26T16:10:12;22.10;;;6.40;;
73023;SDS011;61199;47.526;8.538;2022-10-26T16:12:42;22.30;;;6.27;;
73023;SDS011;61199;47.526;8.538;2022-10-26T16:15:09;14.70;;;6.13;;
73023;SDS011;61199;47.526;8.538;2022-10-26T16:17:41;26.37;;;6.90;;
73023;SDS011;61199;47.526;8.538;2022-10-26T16:20:09;17.20;;;5.17;;
73023;SDS011;61199;47.526;8.538;2022-10-26T16:22:39;17.77;;;6.70;;
73023;SDS011;61199;47.526;8.538;2022-10-26T16:25:06;23.90;;;5.90;;
73023;SDS011;61199;47.526;8.538;2022-10-26T16:27:33;20.37;;;5.30;;
73023;SDS011;61199;47.526;8.538;2022-10-26T16:29:59;18.30;;;5.30;;
73023;SDS011;61199;47.526;8.538;2022-10-26T16:32:25;21.93;;;6.83;;
73023;SDS011;61199;47.526;8.538;2022-10-26T16:34:52;19.00;;;7.00;;
73023;SDS011;61199;47.526;8.538;2022-10-26T16:37:18;24.73;;;5.70;;
73023;SDS011;61199;47.526;8.538;2022-10-26T16:39:45;14.90;;;5.63;;
73023;SDS011;61199;47.526;8.538;2022-10-26T16:42:11;21.30;;;6.30;;
73023;SDS011;61199;47.526;8.538;2022-10-26T16:44:37;15.33;;;6.00;;
73023;SDS011;61199;47.526;8.538;2022-10-26T16:47:04;22.67;;;5.30;;
73023;SDS011;61199;47.526;8.538;2022-10-26T16:49:30;17.23;;;5.80;;
73023;SDS011;61199;47.526;8.538;2022-10-26T16:51:56;35.10;;;8.23;;
73023;SDS011;61199;47.526;8.538;2022-10-26T16:54:23;18.93;;;6.00;;
73023;SDS011;61199;47.526;8.538;2022-10-26T16:56:51;20.97;;;6.70;;
73023;SDS011;61199;47.526;8.538;2022-10-26T16:59:17;22.07;;;6.27;;
73023;SDS011;61199;47.526;8.538;2022-10-26T17:01:43;33.07;;;7.50;;
73023;SDS011;61199;47.526;8.538;2022-10-26T17:04:10;24.90;;;5.40;;
73023;SDS011;61199;47.526;8.538;2022-10-26T17:06:36;18.63;;;6.07;;
73023;SDS011;61199;47.526;8.538;2022-10-26T17:09:03;25.10;;;6.53;;
73023;SDS011;61199;47.526;8.538;2022-10-26T17:11:29;26.57;;;7.30;;